Airfield :







YOU CAN JOIN US ON...

 
LOGIN :

Register | Disclaimer

   EN    FR    IT 

 









Legend :    VFR   Marginal VFR   IFR   Intensive IFR   Very Intensive IFR
Visi :
Ceiling :
>= 8 km
>= 3000ft
5 to 8 km
1000 to 3000 ft
1500m to 5 km
500 to 1000 ft
800 to 1500m
200 to 500 ft
< 800m
< 200 ft
Symbols :   Thunderstorms  Fog  Heavy snow  Heavy precipitations  Wind > 20 kt






- Airport Elevation : 72 ft
- IATA code : YDF


CYDF - Deer Lake

CURRENT METAR :
  • 091500Z 20006KT 8SM -RA OVC035 13/12 A3007 RMK SC8 SLP183

EXPIRED METARs :
  • 091400Z 25003KT 190V270 8SM -RA OVC028 14/12 A3007 RMK SC8 SLP183
  • 091300Z 20007KT 140V210 8SM -RA BKN035 OVC051 15/12 A3006 RMK SC5SC3 SLP182
  • 091231Z 18005KT 12SM -RA OVC050 15/12 A3006 RMK SC8 SLP180

TAF TAF CYDF
Valid from the 09 at 14:00 until the 10 at 00:00 UTC


091338Z 0914/0924 VRB03KT P6SM -RA SCT015 BKN030 OVC050
TEMPO 0914/0924 5SM -RA BR BKN015 OVC030
BECMG 0914/0916 19010G20KT RMK NXT FCST BY 092000Z
CZQX FIR / North America



MET'MAP, your aeronautical weather chart ! - Copyright ORBIFLY December 2007 - Disclaimer

ORBIFLY MET'MAP TEAM :

Programming & Development : Alexandra Zaïnal
Concept & original design : Baudouin d'Aumeries
Assistance for programming : Marc-Olivier Méhu
Technical & hardware support : Manuel Goepfert

Contact : metmap@orbifly.com




SOURCES & CREDITS :

   NOAA